Terminal Aerodrome Forecast
Issued by NWS Charleston, WV

Current Version | Previous Version | Graphics & Text | Print | Product List | Glossary On
Versions: 1 2 3 4 5 6 7 8 9 10 11 12 13 14 15 16 17 18 19 20 21
000
FTUS41 KRLX 010500
TAFPKB
TAF
KPKB 010540Z 0106/0206 33004KT P6SM FEW035 OVC070
     FM010700 34005KT 6SM -SHRA BKN013
     FM011300 VRB03KT P6SM BKN021
     FM011700 34005KT P6SM BKN040
     FM012000 33007KT P6SM SCT060
     FM020300 VRB03KT P6SM SCT250=

USA.gov is the U.S. government's official web portal to all federal, state and local government web resources and services.